sensor_id;sensor_type;location;lat;lon;timestamp;pressure;altitude;pressure_sealevel;temperature;humidity
79409;BME280;76551;50.960;0.254;2024-03-29T13:27:32;97696.38;;;7.75;64.76
79409;BME280;76551;50.960;0.254;2024-03-29T13:29:56;97678.82;;;10.98;55.36
79409;BME280;76551;50.960;0.254;2024-03-29T13:32:21;97683.51;;;11.18;54.09
79409;BME280;76551;50.960;0.254;2024-03-29T13:34:46;97682.39;;;11.72;52.88
79409;BME280;76551;50.960;0.254;2024-03-29T13:37:11;97684.01;;;11.46;52.45
79409;BME280;76551;50.960;0.254;2024-03-29T13:39:36;97685.67;;;10.98;52.07
79409;BME280;76551;50.960;0.254;2024-03-29T13:42:01;97696.12;;;11.48;53.54
79409;BME280;76551;50.960;0.254;2024-03-29T13:44:26;97703.53;;;10.98;53.41
79409;BME280;76551;50.960;0.254;2024-03-29T13:46:51;97705.37;;;10.58;54.01
79409;BME280;76551;50.960;0.254;2024-03-29T13:49:16;97704.57;;;11.30;52.63
79409;BME280;76551;50.960;0.254;2024-03-29T13:51:47;97711.05;;;11.35;54.01
79409;BME280;76551;50.960;0.254;2024-03-29T13:54:11;97723.69;;;11.44;54.35
79409;BME280;76551;50.960;0.254;2024-03-29T13:56:32;97718.68;;;11.39;52.85
79409;BME280;76551;50.960;0.254;2024-03-29T13:58:57;97725.19;;;11.21;52.40
79409;BME280;76551;50.960;0.254;2024-03-29T14:01:22;97731.86;;;10.96;52.52
79409;BME280;76551;50.960;0.254;2024-03-29T14:03:47;97732.92;;;10.76;54.30
79409;BME280;76551;50.960;0.254;2024-03-29T14:06:12;97726.05;;;11.12;53.65
79409;BME280;76551;50.960;0.254;2024-03-29T14:08:42;97729.94;;;10.97;53.16
79409;BME280;76551;50.960;0.254;2024-03-29T14:11:02;97721.60;;;11.24;51.71
79409;BME280;76551;50.960;0.254;2024-03-29T14:13:27;97724.57;;;10.92;52.75
79409;BME280;76551;50.960;0.254;2024-03-29T14:15:52;97727.27;;;12.01;51.29
79409;BME280;76551;50.960;0.254;2024-03-29T14:18:17;97716.56;;;12.74;49.28
79409;BME280;76551;50.960;0.254;2024-03-29T14:20:47;97717.97;;;12.30;49.02
79409;BME280;76551;50.960;0.254;2024-03-29T14:23:13;97728.57;;;11.56;50.21
79409;BME280;76551;50.960;0.254;2024-03-29T14:25:32;97734.05;;;11.69;49.71
79409;BME280;76551;50.960;0.254;2024-03-29T14:27:57;97738.36;;;11.02;52.20
79409;BME280;76551;50.960;0.254;2024-03-29T14:30:23;97732.19;;;11.23;51.73
79409;BME280;76551;50.960;0.254;2024-03-29T14:32:51;97730.38;;;11.65;50.81
79409;BME280;76551;50.960;0.254;2024-03-29T14:35:13;97720.93;;;11.57;50.69
79409;BME280;76551;50.960;0.254;2024-03-29T14:37:38;97726.40;;;11.60;51.68
79409;BME280;76551;50.960;0.254;2024-03-29T14:40:03;97727.09;;;12.02;50.79
79409;BME280;76551;50.960;0.254;2024-03-29T14:42:28;97730.01;;;12.18;48.36
79409;BME280;76551;50.960;0.254;2024-03-29T14:44:53;97731.51;;;11.77;50.40
79409;BME280;76551;50.960;0.254;2024-03-29T14:47:18;97743.16;;;11.60;51.27
79409;BME280;76551;50.960;0.254;2024-03-29T14:49:43;97740.57;;;11.35;50.29
79409;BME280;76551;50.960;0.254;2024-03-29T14:52:08;97739.42;;;11.66;49.28
79409;BME280;76551;50.960;0.254;2024-03-29T14:54:33;97744.74;;;11.11;51.10
79409;BME280;76551;50.960;0.254;2024-03-29T14:56:58;97739.32;;;11.99;49.47
79409;BME280;76551;50.960;0.254;2024-03-29T14:59:23;97744.81;;;11.74;48.16
79409;BME280;76551;50.960;0.254;2024-03-29T15:01:48;97735.84;;;11.96;46.79
79409;BME280;76551;50.960;0.254;2024-03-29T15:04:13;97732.54;;;11.64;48.07
79409;BME280;76551;50.960;0.254;2024-03-29T15:06:38;97739.69;;;12.07;48.15
79409;BME280;76551;50.960;0.254;2024-03-29T15:09:04;97739.54;;;11.68;47.28
79409;BME280;76551;50.960;0.254;2024-03-29T15:11:28;97743.20;;;11.79;48.45
79409;BME280;76551;50.960;0.254;2024-03-29T15:13:53;97739.84;;;11.29;48.44
79409;BME280;76551;50.960;0.254;2024-03-29T15:16:18;97741.41;;;11.92;47.81
79409;BME280;76551;50.960;0.254;2024-03-29T15:18:43;97727.06;;;12.94;46.94
79409;BME280;76551;50.960;0.254;2024-03-29T15:21:08;97737.81;;;12.08;47.77
79409;BME280;76551;50.960;0.254;2024-03-29T15:23:33;97742.76;;;12.08;48.98
79409;BME280;76551;50.960;0.254;2024-03-29T15:25:59;97739.04;;;11.98;48.76
79409;BME280;76551;50.960;0.254;2024-03-29T15:28:26;97742.44;;;12.89;47.06
79409;BME280;76551;50.960;0.254;2024-03-29T15:30:55;97736.36;;;13.08;46.03
79409;BME280;76551;50.960;0.254;2024-03-29T15:33:16;97735.52;;;12.49;47.23
79409;BME280;76551;50.960;0.254;2024-03-29T15:35:42;97737.25;;;10.88;50.04
79409;BME280;76551;50.960;0.254;2024-03-29T15:38:08;97747.33;;;10.81;49.26
79409;BME280;76551;50.960;0.254;2024-03-29T15:40:33;97751.98;;;11.16;49.12
79409;BME280;76551;50.960;0.254;2024-03-29T15:43:03;97754.73;;;11.70;48.52
79409;BME280;76551;50.960;0.254;2024-03-29T15:45:23;97749.40;;;12.17;48.33
79409;BME280;76551;50.960;0.254;2024-03-29T15:47:48;97747.66;;;11.02;49.71
79409;BME280;76551;50.960;0.254;2024-03-29T15:50:23;97748.58;;;11.34;49.92
79409;BME280;76551;50.960;0.254;2024-03-29T15:52:39;97752.03;;;10.81;50.82
79409;BME280;76551;50.960;0.254;2024-03-29T15:55:14;97746.04;;;10.70;51.22
79409;BME280;76551;50.960;0.254;2024-03-29T15:57:30;97738.58;;;11.06;50.90
79409;BME280;76551;50.960;0.254;2024-03-29T15:59:56;97736.79;;;11.15;50.56
79409;BME280;76551;50.960;0.254;2024-03-29T16:02:22;97738.01;;;10.93;51.08
79409;BME280;76551;50.960;0.254;2024-03-29T16:04:48;97751.22;;;10.85;51.61
79409;BME280;76551;50.960;0.254;2024-03-29T16:07:14;97744.92;;;11.10;51.28
79409;BME280;76551;50.960;0.254;2024-03-29T16:09:40;97750.35;;;10.80;51.65
79409;BME280;76551;50.960;0.254;2024-03-29T16:12:07;97752.51;;;10.45;51.82
79409;BME280;76551;50.960;0.254;2024-03-29T16:14:32;97748.23;;;10.92;51.33
79409;BME280;76551;50.960;0.254;2024-03-29T16:17:04;97750.86;;;11.32;50.23
79409;BME280;76551;50.960;0.254;2024-03-29T16:19:24;97750.03;;;11.87;49.50
79409;BME280;76551;50.960;0.254;2024-03-29T16:21:50;97756.58;;;11.53;49.41
79409;BME280;76551;50.960;0.254;2024-03-29T16:24:21;97755.78;;;11.73;49.11
79409;BME280;76551;50.960;0.254;2024-03-29T16:26:42;97754.74;;;11.32;50.56
79409;BME280;76551;50.960;0.254;2024-03-29T16:29:08;97756.10;;;12.24;49.05
79409;BME280;76551;50.960;0.254;2024-03-29T16:31:34;97761.26;;;12.26;49.35
79409;BME280;76551;50.960;0.254;2024-03-29T16:34:00;97758.24;;;11.63;50.20
79409;BME280;76551;50.960;0.254;2024-03-29T16:36:28;97752.97;;;12.09;48.86
79409;BME280;76551;50.960;0.254;2024-03-29T16:38:53;97749.60;;;12.55;47.38
79409;BME280;76551;50.960;0.254;2024-03-29T16:41:18;97760.33;;;11.51;49.15
79409;BME280;76551;50.960;0.254;2024-03-29T16:43:44;97766.13;;;10.90;51.04
79409;BME280;76551;50.960;0.254;2024-03-29T16:46:15;97774.57;;;11.05;51.05
79409;BME280;76551;50.960;0.254;2024-03-29T16:48:36;97787.41;;;10.67;51.65
79409;BME280;76551;50.960;0.254;2024-03-29T16:51:02;97785.77;;;10.20;52.59
79409;BME280;76551;50.960;0.254;2024-03-29T16:53:28;97788.18;;;10.78;51.85
79409;BME280;76551;50.960;0.254;2024-03-29T16:55:54;97787.76;;;11.51;50.03
79409;BME280;76551;50.960;0.254;2024-03-29T16:58:25;97789.91;;;11.25;49.75
79409;BME280;76551;50.960;0.254;2024-03-29T17:00:47;97794.26;;;11.40;49.29
79409;BME280;76551;50.960;0.254;2024-03-29T17:03:13;97796.25;;;11.48;49.64
79409;BME280;76551;50.960;0.254;2024-03-29T17:05:39;97798.03;;;11.35;49.21
79409;BME280;76551;50.960;0.254;2024-03-29T17:08:05;97796.57;;;10.88;50.90
79409;BME280;76551;50.960;0.254;2024-03-29T17:10:31;97802.17;;;10.87;51.21
79409;BME280;76551;50.960;0.254;2024-03-29T17:12:57;97800.77;;;11.77;49.92
79409;BME280;76551;50.960;0.254;2024-03-29T17:15:23;97804.64;;;11.34;50.30
79409;BME280;76551;50.960;0.254;2024-03-29T17:17:49;97805.74;;;11.52;49.94
79409;BME280;76551;50.960;0.254;2024-03-29T17:20:15;97809.02;;;11.44;51.14
79409;BME280;76551;50.960;0.254;2024-03-29T17:22:41;97812.64;;;11.33;50.82
79409;BME280;76551;50.960;0.254;2024-03-29T17:25:07;97812.31;;;11.29;51.15
79409;BME280;76551;50.960;0.254;2024-03-29T17:27:35;97818.41;;;10.44;52.51
79409;BME280;76551;50.960;0.254;2024-03-29T17:29:58;97821.06;;;10.67;52.51
79409;BME280;76551;50.960;0.254;2024-03-29T17:32:23;97821.90;;;11.76;50.74
79409;BME280;76551;50.960;0.254;2024-03-29T17:34:49;97816.91;;;11.69;50.66
79409;BME280;76551;50.960;0.254;2024-03-29T17:37:14;97820.89;;;11.49;49.75
79409;BME280;76551;50.960;0.254;2024-03-29T17:39:40;97828.74;;;11.81;50.34
79409;BME280;76551;50.960;0.254;2024-03-29T17:42:06;97829.21;;;11.61;49.80
79409;BME280;76551;50.960;0.254;2024-03-29T17:44:31;97835.36;;;10.79;52.65
79409;BME280;76551;50.960;0.254;2024-03-29T17:46:57;97829.28;;;11.06;50.31
79409;BME280;76551;50.960;0.254;2024-03-29T17:49:23;97825.96;;;10.98;51.48
79409;BME280;76551;50.960;0.254;2024-03-29T17:51:49;97821.46;;;11.54;49.36
79409;BME280;76551;50.960;0.254;2024-03-29T17:54:15;97820.00;;;11.92;49.03
79409;BME280;76551;50.960;0.254;2024-03-29T17:56:41;97823.44;;;11.98;48.62
79409;BME280;76551;50.960;0.254;2024-03-29T17:59:07;97837.48;;;11.97;49.80
79409;BME280;76551;50.960;0.254;2024-03-29T18:01:33;97842.10;;;11.39;49.59
79409;BME280;76551;50.960;0.254;2024-03-29T18:03:59;97844.21;;;10.66;50.99
79409;BME280;76551;50.960;0.254;2024-03-29T18:06:25;97852.08;;;11.37;50.36
79409;BME280;76551;50.960;0.254;2024-03-29T18:08:50;97861.88;;;10.89;50.28
79409;BME280;76551;50.960;0.254;2024-03-29T18:11:15;97858.53;;;11.03;50.22
79409;BME280;76551;50.960;0.254;2024-03-29T18:13:40;97855.40;;;10.06;52.29
79409;BME280;76551;50.960;0.254;2024-03-29T18:16:05;97856.34;;;10.79;50.99
79409;BME280;76551;50.960;0.254;2024-03-29T18:18:31;97857.80;;;10.73;50.94
79409;BME280;76551;50.960;0.254;2024-03-29T18:20:56;97855.21;;;10.98;50.46
79409;BME280;76551;50.960;0.254;2024-03-29T18:23:21;97857.00;;;10.85;49.94
79409;BME280;76551;50.960;0.254;2024-03-29T18:25:46;97855.75;;;11.28;49.20
79409;BME280;76551;50.960;0.254;2024-03-29T18:28:11;97856.02;;;9.95;52.36
79409;BME280;76551;50.960;0.254;2024-03-29T18:30:36;97854.25;;;11.01;49.98
79409;BME280;76551;50.960;0.254;2024-03-29T18:33:01;97853.74;;;11.08;49.78
79409;BME280;76551;50.960;0.254;2024-03-29T18:35:26;97856.42;;;10.81;49.04
79409;BME280;76551;50.960;0.254;2024-03-29T18:37:51;97862.46;;;11.76;47.98
79409;BME280;76551;50.960;0.254;2024-03-29T18:40:16;97869.31;;;11.70;47.69
79409;BME280;76551;50.960;0.254;2024-03-29T18:42:41;97876.40;;;10.98;49.23
79409;BME280;76551;50.960;0.254;2024-03-29T18:45:06;97872.63;;;11.47;48.42
79409;BME280;76551;50.960;0.254;2024-03-29T18:47:31;97870.35;;;11.31;48.04
79409;BME280;76551;50.960;0.254;2024-03-29T18:49:56;97870.17;;;11.12;48.71
79409;BME280;76551;50.960;0.254;2024-03-29T18:52:21;97871.00;;;11.63;48.55
79409;BME280;76551;50.960;0.254;2024-03-29T18:54:46;97874.46;;;11.01;48.92
79409;BME280;76551;50.960;0.254;2024-03-29T18:57:11;97875.06;;;11.21;48.47
79409;BME280;76551;50.960;0.254;2024-03-29T18:59:36;97881.93;;;11.09;49.24
79409;BME280;76551;50.960;0.254;2024-03-29T19:02:02;97882.77;;;10.68;49.84
79409;BME280;76551;50.960;0.254;2024-03-29T19:04:26;97884.99;;;11.01;49.84
79409;BME280;76551;50.960;0.254;2024-03-29T19:06:52;97889.49;;;10.85;49.87
79409;BME280;76551;50.960;0.254;2024-03-29T19:09:17;97888.45;;;10.86;49.99
79409;BME280;76551;50.960;0.254;2024-03-29T19:11:42;97895.00;;;11.21;49.98
79409;BME280;76551;50.960;0.254;2024-03-29T19:14:07;97894.42;;;10.97;50.01
79409;BME280;76551;50.960;0.254;2024-03-29T19:16:32;97902.86;;;11.19;49.42
79409;BME280;76551;50.960;0.254;2024-03-29T19:18:57;97903.64;;;11.57;48.31
79409;BME280;76551;50.960;0.254;2024-03-29T19:21:23;97907.17;;;12.15;47.45
79409;BME280;76551;50.960;0.254;2024-03-29T19:23:47;97902.26;;;12.73;45.77
79409;BME280;76551;50.960;0.254;2024-03-29T19:26:12;97908.74;;;11.88;47.97
79409;BME280;76551;50.960;0.254;2024-03-29T19:28:37;97917.96;;;11.77;48.55
79409;BME280;76551;50.960;0.254;2024-03-29T19:31:02;97922.20;;;11.89;48.89
79409;BME280;76551;50.960;0.254;2024-03-29T19:33:27;97930.24;;;11.22;50.69
79409;BME280;76551;50.960;0.254;2024-03-29T19:35:57;97933.45;;;11.77;49.30
79409;BME280;76551;50.960;0.254;2024-03-29T19:38:18;97935.49;;;10.47;51.53
79409;BME280;76551;50.960;0.254;2024-03-29T19:40:42;97940.67;;;11.65;49.66
79409;BME280;76551;50.960;0.254;2024-03-29T19:43:08;97941.29;;;11.67;49.10
79409;BME280;76551;50.960;0.254;2024-03-29T19:45:33;97939.76;;;12.06;48.83
79409;BME280;76551;50.960;0.254;2024-03-29T19:47:58;97928.05;;;12.89;46.85
79409;BME280;76551;50.960;0.254;2024-03-29T19:50:23;97925.86;;;12.89;46.67
79409;BME280;76551;50.960;0.254;2024-03-29T19:52:48;97931.29;;;12.25;47.76
79409;BME280;76551;50.960;0.254;2024-03-29T19:55:13;97931.55;;;12.34;46.82
79409;BME280;76551;50.960;0.254;2024-03-29T19:57:38;97935.83;;;12.26;46.99
79409;BME280;76551;50.960;0.254;2024-03-29T20:00:04;97938.16;;;12.01;47.42
79409;BME280;76551;50.960;0.254;2024-03-29T20:02:28;97948.13;;;11.45;50.61
79409;BME280;76551;50.960;0.254;2024-03-29T20:04:53;97956.96;;;11.30;50.68
79409;BME280;76551;50.960;0.254;2024-03-29T20:07:18;97955.74;;;11.32;50.73
79409;BME280;76551;50.960;0.254;2024-03-29T20:09:43;97958.87;;;11.13;50.45
79409;BME280;76551;50.960;0.254;2024-03-29T20:12:08;97962.54;;;10.79;51.23
79409;BME280;76551;50.960;0.254;2024-03-29T20:14:33;97970.05;;;10.51;53.31
79409;BME280;76551;50.960;0.254;2024-03-29T20:16:58;97976.30;;;10.14;54.57
79409;BME280;76551;50.960;0.254;2024-03-29T20:19:24;97977.17;;;10.26;54.05
79409;BME280;76551;50.960;0.254;2024-03-29T20:21:48;97986.35;;;10.26;54.69
79409;BME280;76551;50.960;0.254;2024-03-29T20:24:13;97982.69;;;10.63;53.22
79409;BME280;76551;50.960;0.254;2024-03-29T20:26:44;97984.09;;;11.33;50.99
79409;BME280;76551;50.960;0.254;2024-03-29T20:29:04;97990.59;;;11.75;50.19
79409;BME280;76551;50.960;0.254;2024-03-29T20:31:29;97987.05;;;11.93;49.72
79409;BME280;76551;50.960;0.254;2024-03-29T20:33:54;97992.85;;;11.40;50.59
79409;BME280;76551;50.960;0.254;2024-03-29T20:36:19;97993.69;;;12.15;49.47
79409;BME280;76551;50.960;0.254;2024-03-29T20:38:44;97995.41;;;12.69;48.15
79409;BME280;76551;50.960;0.254;2024-03-29T20:41:09;97995.81;;;12.91;47.25
79409;BME280;76551;50.960;0.254;2024-03-29T20:43:34;97996.75;;;12.40;47.92
79409;BME280;76551;50.960;0.254;2024-03-29T20:46:00;97998.29;;;11.59;49.88
79409;BME280;76551;50.960;0.254;2024-03-29T20:48:24;98002.15;;;12.03;50.00
79409;BME280;76551;50.960;0.254;2024-03-29T20:50:57;98005.27;;;12.16;49.44
79409;BME280;76551;50.960;0.254;2024-03-29T20:53:14;98011.18;;;11.51;50.56
79409;BME280;76551;50.960;0.254;2024-03-29T20:55:40;98008.47;;;12.47;48.44
79409;BME280;76551;50.960;0.254;2024-03-29T20:58:11;98005.98;;;12.29;49.38
79409;BME280;76551;50.960;0.254;2024-03-29T21:00:37;98007.08;;;12.48;48.90
79409;BME280;76551;50.960;0.254;2024-03-29T21:02:58;98005.84;;;12.45;49.71
79409;BME280;76551;50.960;0.254;2024-03-29T21:05:24;98011.37;;;10.88;52.33
79409;BME280;76551;50.960;0.254;2024-03-29T21:07:49;98014.57;;;12.11;50.73
79409;BME280;76551;50.960;0.254;2024-03-29T21:10:15;98013.69;;;11.50;52.86
79409;BME280;76551;50.960;0.254;2024-03-29T21:12:39;98019.43;;;11.92;51.32
79409;BME280;76551;50.960;0.254;2024-03-29T21:15:05;98021.54;;;11.80;51.05
79409;BME280;76551;50.960;0.254;2024-03-29T21:17:30;98027.63;;;11.32;52.64
79409;BME280;76551;50.960;0.254;2024-03-29T21:19:54;98032.53;;;11.84;51.65
79409;BME280;76551;50.960;0.254;2024-03-29T21:22:19;98034.09;;;11.87;51.10
79409;BME280;76551;50.960;0.254;2024-03-29T21:24:45;98038.05;;;12.22;51.19
79409;BME280;76551;50.960;0.254;2024-03-29T21:27:12;98039.66;;;12.08;51.11
79409;BME280;76551;50.960;0.254;2024-03-29T21:29:36;98039.52;;;11.99;51.61
79409;BME280;76551;50.960;0.254;2024-03-29T21:32:01;98037.00;;;11.82;51.71
79409;BME280;76551;50.960;0.254;2024-03-29T21:34:31;98039.39;;;11.94;51.45
79409;BME280;76551;50.960;0.254;2024-03-29T21:36:51;98036.89;;;12.47;49.93
79409;BME280;76551;50.960;0.254;2024-03-29T21:39:17;98040.16;;;11.93;51.46
79409;BME280;76551;50.960;0.254;2024-03-29T21:41:42;98035.69;;;12.55;49.43
79409;BME280;76551;50.960;0.254;2024-03-29T21:44:07;98029.32;;;12.83;48.21
79409;BME280;76551;50.960;0.254;2024-03-29T21:46:32;98028.57;;;12.12;49.56
79409;BME280;76551;50.960;0.254;2024-03-29T21:48:57;98030.50;;;12.08;50.38
79409;BME280;76551;50.960;0.254;2024-03-29T21:51:22;98025.41;;;12.50;49.28
79409;BME280;76551;50.960;0.254;2024-03-29T21:53:48;98025.01;;;11.81;50.14
79409;BME280;76551;50.960;0.254;2024-03-29T21:56:12;98026.78;;;12.31;49.33
79409;BME280;76551;50.960;0.254;2024-03-29T21:58:37;98029.68;;;13.00;48.17
79409;BME280;76551;50.960;0.254;2024-03-29T22:01:02;98031.85;;;12.54;47.97
79409;BME280;76551;50.960;0.254;2024-03-29T22:03:27;98036.32;;;12.49;48.99
79409;BME280;76551;50.960;0.254;2024-03-29T22:05:52;98038.55;;;12.77;48.29
79409;BME280;76551;50.960;0.254;2024-03-29T22:08:17;98040.88;;;11.38;50.92
79409;BME280;76551;50.960;0.254;2024-03-29T22:10:42;98035.76;;;11.53;50.57
79409;BME280;76551;50.960;0.254;2024-03-29T22:13:07;98036.24;;;11.86;50.43
79409;BME280;76551;50.960;0.254;2024-03-29T22:15:32;98035.62;;;11.91;49.77
79409;BME280;76551;50.960;0.254;2024-03-29T22:17:57;98030.74;;;12.26;49.34
79409;BME280;76551;50.960;0.254;2024-03-29T22:20:22;98028.29;;;12.12;49.34
79409;BME280;76551;50.960;0.254;2024-03-29T22:22:48;98022.39;;;12.91;47.63
79409;BME280;76551;50.960;0.254;2024-03-29T22:25:13;98022.45;;;12.16;48.06
79409;BME280;76551;50.960;0.254;2024-03-29T22:27:38;98021.96;;;12.26;48.92
79409;BME280;76551;50.960;0.254;2024-03-29T22:30:03;98025.68;;;12.14;49.02
79409;BME280;76551;50.960;0.254;2024-03-29T22:32:28;98022.62;;;12.27;48.07
79409;BME280;76551;50.960;0.254;2024-03-29T22:34:53;98018.48;;;12.19;47.65
79409;BME280;76551;50.960;0.254;2024-03-29T22:37:18;98020.36;;;11.80;49.10
79409;BME280;76551;50.960;0.254;2024-03-29T22:39:43;98022.57;;;10.92;51.12
79409;BME280;76551;50.960;0.254;2024-03-29T22:42:08;98031.08;;;10.28;52.21
79409;BME280;76551;50.960;0.254;2024-03-29T22:44:33;98031.63;;;10.93;52.01
79409;BME280;76551;50.960;0.254;2024-03-29T22:46:58;98032.23;;;11.75;50.02
79409;BME280;76551;50.960;0.254;2024-03-29T22:49:24;98035.35;;;11.82;49.80
79409;BME280;76551;50.960;0.254;2024-03-29T22:51:48;98037.42;;;11.65;49.36
79409;BME280;76551;50.960;0.254;2024-03-29T22:54:13;98041.18;;;12.67;47.20
79409;BME280;76551;50.960;0.254;2024-03-29T22:56:39;98040.21;;;12.59;46.90
79409;BME280;76551;50.960;0.254;2024-03-29T22:59:03;98040.20;;;12.75;46.30
79409;BME280;76551;50.960;0.254;2024-03-29T23:01:29;98038.12;;;13.24;45.02
79409;BME280;76551;50.960;0.254;2024-03-29T23:03:54;98043.59;;;12.38;46.44
79409;BME280;76551;50.960;0.254;2024-03-29T23:06:19;98047.26;;;12.27;47.05
79409;BME280;76551;50.960;0.254;2024-03-29T23:08:44;98046.27;;;11.99;47.68
79409;BME280;76551;50.960;0.254;2024-03-29T23:11:09;98047.33;;;11.86;47.92
79409;BME280;76551;50.960;0.254;2024-03-29T23:13:34;98046.40;;;12.70;46.06
79409;BME280;76551;50.960;0.254;2024-03-29T23:15:59;98051.81;;;12.18;47.50
79409;BME280;76551;50.960;0.254;2024-03-29T23:18:24;98055.80;;;12.23;47.31
79409;BME280;76551;50.960;0.254;2024-03-29T23:20:51;98056.49;;;12.54;46.50
79409;BME280;76551;50.960;0.254;2024-03-29T23:23:14;98061.36;;;12.87;45.75
79409;BME280;76551;50.960;0.254;2024-03-29T23:25:39;98062.57;;;13.16;45.09
79409;BME280;76551;50.960;0.254;2024-03-29T23:28:04;98065.67;;;12.69;45.46
79409;BME280;76551;50.960;0.254;2024-03-29T23:30:29;98059.64;;;13.36;44.29
79409;BME280;76551;50.960;0.254;2024-03-29T23:32:55;98063.62;;;12.98;44.73
79409;BME280;76551;50.960;0.254;2024-03-29T23:35:19;98061.46;;;12.90;45.06
79409;BME280;76551;50.960;0.254;2024-03-29T23:37:44;98056.46;;;13.53;43.93
79409;BME280;76551;50.960;0.254;2024-03-29T23:40:10;98056.56;;;13.68;43.47
79409;BME280;76551;50.960;0.254;2024-03-29T23:42:35;98055.59;;;13.53;44.27
79409;BME280;76551;50.960;0.254;2024-03-29T23:45:01;98050.65;;;13.58;44.12
79409;BME280;76551;50.960;0.254;2024-03-29T23:47:25;98051.91;;;13.93;43.38
79409;BME280;76551;50.960;0.254;2024-03-29T23:49:55;98054.57;;;13.48;43.97
79409;BME280;76551;50.960;0.254;2024-03-29T23:52:15;98057.12;;;13.57;44.30
79409;BME280;76551;50.960;0.254;2024-03-29T23:54:42;98053.63;;;13.17;44.24
79409;BME280;76551;50.960;0.254;2024-03-29T23:57:07;98059.83;;;14.16;43.00
79409;BME280;76551;50.960;0.254;2024-03-29T23:59:33;98068.15;;;13.47;44.36
